Time;durP1;ratioP1;P1;durP2;ratioP2;P2;SDS_P1;SDS_P2;PMS_P1;PMS_P2;Temp;Humidity;BMP_temperature;BMP_pressure;BME280_temperature;BME280_humidity;BME280_pressure;Samples;Min_cycle;Max_cycle;Signal;HPM_P1;HPM_P2
2021/07/28 00:00:16;;;;;;;11.17;7.70;;;19.40;88.80;;;;;;4912627;29;20499;-40
2021/07/28 00:02:43;;;;;;;12.60;8.60;;;19.40;88.90;;;;;;4922408;29;20531;-41
2021/07/28 00:05:10;;;;;;;12.43;8.37;;;19.40;88.90;;;;;;4922609;29;20482;-41
2021/07/28 00:07:37;;;;;;;9.67;7.37;;;19.40;88.90;;;;;;4907647;29;20516;-41
2021/07/28 00:10:04;;;;;;;9.23;6.97;;;19.40;88.90;;;;;;4924353;29;20494;-41
2021/07/28 00:12:31;;;;;;;12.30;7.63;;;19.40;88.90;;;;;;4924622;29;20463;-41
2021/07/28 00:14:58;;;;;;;9.70;7.10;;;19.40;88.80;;;;;;4927938;29;20473;-41
2021/07/28 00:17:27;;;;;;;9.93;7.97;;;19.40;88.80;;;;;;4927453;29;20464;-42
2021/07/28 00:20:02;;;;;;;9.20;7.63;;;19.30;88.80;;;;;;4926104;29;20456;-42
2021/07/28 00:25:20;;;;;;;9.80;6.33;;;19.30;88.80;;;;;;4925003;29;20475;-39
2021/07/28 00:27:49;;;;;;;9.20;7.23;;;19.30;88.80;;;;;;4910075;29;20529;-39
2021/07/28 00:30:17;;;;;;;9.77;7.20;;;19.30;88.80;;;;;;4906529;29;20480;-41
2021/07/28 00:32:44;;;;;;;7.50;6.70;;;19.20;88.80;;;;;;4924488;29;20468;-40
2021/07/28 00:35:11;;;;;;;8.50;7.50;;;19.20;88.90;;;;;;4923067;29;20460;-42
2021/07/28 00:37:37;;;;;;;9.43;8.43;;;19.20;88.90;;;;;;4905610;29;20568;-40
2021/07/28 00:40:05;;;;;;;8.00;6.83;;;19.20;88.80;;;;;;4924655;29;20460;-40
2021/07/28 00:42:32;;;;;;;11.83;7.90;;;19.20;88.80;;;;;;4906707;29;20459;-40
2021/07/28 00:44:58;;;;;;;10.03;8.43;;;19.20;88.70;;;;;;4925227;29;20466;-40
2021/07/28 00:47:25;;;;;;;8.70;6.83;;;19.10;88.80;;;;;;4922723;29;21221;-41
2021/07/28 00:49:53;;;;;;;9.87;6.60;;;19.10;88.80;;;;;;4924508;29;20465;-40
2021/07/28 00:52:19;;;;;;;10.03;7.60;;;19.10;88.80;;;;;;4912678;29;20483;-41
2021/07/28 00:54:46;;;;;;;12.97;8.13;;;19.10;88.70;;;;;;4922934;29;20493;-41
2021/07/28 00:57:13;;;;;;;11.83;8.30;;;19.10;88.70;;;;;;4905142;29;20475;-40
2021/07/28 00:59:40;;;;;;;11.30;8.63;;;19.00;88.70;;;;;;4926837;29;20478;-41
2021/07/28 01:02:08;;;;;;;12.80;8.90;;;19.00;88.70;;;;;;4927081;29;20580;-41
2021/07/28 01:04:35;;;;;;;9.87;7.33;;;19.00;88.80;;;;;;4929909;29;20456;-41
2021/07/28 01:07:04;;;;;;;14.10;9.10;;;19.00;88.80;;;;;;4924229;29;20468;-41
2021/07/28 01:09:31;;;;;;;12.40;7.93;;;19.00;88.90;;;;;;4923962;29;20456;-41
2021/07/28 01:11:59;;;;;;;12.10;8.40;;;18.90;88.80;;;;;;4915008;29;20479;-39
2021/07/28 01:14:26;;;;;;;11.27;9.00;;;18.90;88.80;;;;;;4924920;29;20583;-41
2021/07/28 01:16:54;;;;;;;10.63;8.57;;;18.90;88.80;;;;;;4914938;29;20593;-40
2021/07/28 01:19:31;;;;;;;12.33;9.13;;;18.90;88.70;;;;;;4915932;29;20984;-40
2021/07/28 01:22:03;;;;;;;14.57;8.27;;;18.90;88.70;;;;;;4911749;29;20486;-40
2021/07/28 01:24:31;;;;;;;10.60;8.60;;;18.90;88.70;;;;;;4927290;29;20522;-41
2021/07/28 01:27:01;;;;;;;10.63;8.90;;;18.80;88.70;;;;;;4917577;29;20459;-40
2021/07/28 01:29:28;;;;;;;9.70;8.33;;;18.80;88.70;;;;;;4925458;29;20831;-41
2021/07/28 01:31:56;;;;;;;9.97;8.57;;;18.80;88.80;;;;;;4920906;29;20521;-41
2021/07/28 01:34:25;;;;;;;11.30;9.00;;;18.80;88.80;;;;;;4925945;29;20467;-40
2021/07/28 01:36:56;;;;;;;10.53;8.10;;;18.80;88.80;;;;;;4907569;29;20467;-41
2021/07/28 01:39:23;;;;;;;12.03;8.57;;;18.80;88.80;;;;;;4927353;29;20472;-41
2021/07/28 01:42:02;;;;;;;13.53;7.90;;;18.70;88.70;;;;;;4925361;29;20456;-40
2021/07/28 01:44:32;;;;;;;10.80;8.40;;;18.70;88.70;;;;;;4926928;29;20899;-40
2021/07/28 01:46:59;;;;;;;10.53;7.33;;;18.70;88.70;;;;;;4924782;29;20543;-41
2021/07/28 01:49:26;;;;;;;10.87;7.93;;;18.60;88.60;;;;;;4925776;29;20516;-40
2021/07/28 01:51:52;;;;;;;11.97;8.37;;;18.60;88.80;;;;;;4925509;29;20492;-40
2021/07/28 01:54:19;;;;;;;12.73;7.97;;;18.60;88.80;;;;;;4925472;29;20546;-40
2021/07/28 01:56:48;;;;;;;10.93;7.33;;;18.60;88.60;;;;;;4927263;29;20465;-40
2021/07/28 01:59:15;;;;;;;9.77;8.00;;;18.60;88.80;;;;;;4915081;29;20548;-41
2021/07/28 02:01:42;;;;;;;11.37;7.80;;;18.60;88.80;;;;;;4926995;29;20499;-42
2021/07/28 02:04:09;;;;;;;11.43;8.43;;;18.60;88.80;;;;;;4924585;29;20476;-41
2021/07/28 02:06:36;;;;;;;10.67;7.80;;;18.50;88.80;;;;;;4924077;29;20475;-42
2021/07/28 02:09:03;;;;;;;9.10;7.53;;;18.50;88.80;;;;;;4923858;29;20467;-42
2021/07/28 02:11:29;;;;;;;12.07;7.43;;;18.50;88.80;;;;;;4906544;29;20595;-39
2021/07/28 02:13:56;;;;;;;12.03;7.50;;;18.50;88.80;;;;;;4923378;29;20519;-42
2021/07/28 02:16:23;;;;;;;10.43;7.40;;;18.50;88.60;;;;;;4923017;29;20703;-41
2021/07/28 02:18:50;;;;;;;8.90;7.83;;;18.40;88.60;;;;;;4910704;29;20954;-41
2021/07/28 02:21:17;;;;;;;11.00;7.73;;;18.40;88.80;;;;;;4924212;29;20508;-41
2021/07/28 02:23:44;;;;;;;10.03;6.73;;;18.40;88.80;;;;;;4924048;29;20881;-42
2021/07/28 02:26:11;;;;;;;10.53;8.10;;;18.40;88.80;;;;;;4913375;29;20459;-41
2021/07/28 02:28:38;;;;;;;9.97;7.20;;;18.50;88.80;;;;;;4927164;29;20539;-42
2021/07/28 02:31:04;;;;;;;7.67;6.50;;;18.40;88.90;;;;;;4925853;29;20481;-42
2021/07/28 02:33:31;;;;;;;9.83;7.33;;;18.40;88.80;;;;;;4923150;29;20463;-40
2021/07/28 02:35:58;;;;;;;11.40;7.47;;;18.40;88.60;;;;;;4926828;29;20461;-42
2021/07/28 02:38:25;;;;;;;9.20;6.83;;;18.40;88.50;;;;;;4910262;29;20482;-40
2021/07/28 02:40:51;;;;;;;10.40;6.20;;;18.30;88.40;;;;;;4925712;29;20470;-40
2021/07/28 02:43:18;;;;;;;8.30;7.20;;;18.30;88.30;;;;;;4925493;29;20467;-41
2021/07/28 02:45:45;;;;;;;8.90;6.40;;;18.30;88.30;;;;;;4925445;29;20547;-41
2021/07/28 02:48:12;;;;;;;10.30;7.30;;;18.20;88.30;;;;;;4924129;29;20464;-42
2021/07/28 02:50:39;;;;;;;10.03;8.00;;;18.20;88.30;;;;;;4913672;29;20474;-43
2021/07/28 02:53:06;;;;;;;10.30;7.50;;;18.20;88.30;;;;;;4923678;29;20547;-41
2021/07/28 02:55:32;;;;;;;9.83;8.13;;;18.20;88.30;;;;;;4920171;29;20509;-42
2021/07/28 02:57:59;;;;;;;12.10;8.67;;;18.20;88.30;;;;;;4907267;29;20465;-41
2021/07/28 03:00:26;;;;;;;12.83;8.83;;;18.20;88.50;;;;;;4922963;29;21487;-41
2021/07/28 03:02:53;;;;;;;11.07;9.63;;;18.20;88.70;;;;;;4910757;29;20462;-42
2021/07/28 03:05:20;;;;;;;11.20;7.93;;;18.20;88.80;;;;;;4910616;29;20560;-42
2021/07/28 03:07:47;;;;;;;14.37;8.83;;;18.20;88.90;;;;;;4911356;29;20483;-40
2021/07/28 03:10:14;;;;;;;13.00;8.37;;;18.20;88.90;;;;;;4922323;29;22525;-40
2021/07/28 03:12:40;;;;;;;12.27;8.53;;;18.20;89.00;;;;;;4921632;29;20571;-40
2021/07/28 03:15:10;;;;;;;10.90;9.53;;;18.20;89.00;;;;;;4921363;29;20467;-40
2021/07/28 03:17:36;;;;;;;11.30;9.73;;;18.20;89.00;;;;;;4923530;29;20526;-43
2021/07/28 03:20:04;;;;;;;14.03;9.20;;;18.20;89.10;;;;;;4913813;29;20468;-40
2021/07/28 03:22:31;;;;;;;13.50;8.70;;;18.20;89.10;;;;;;4927304;29;20543;-42
2021/07/28 03:24:57;;;;;;;13.30;8.47;;;18.10;89.10;;;;;;4924442;29;20476;-41
2021/07/28 03:27:24;;;;;;;10.83;8.70;;;18.10;89.00;;;;;;4923292;29;20826;-42
2021/07/28 03:29:52;;;;;;;11.70;8.13;;;18.10;88.70;;;;;;4922569;29;20921;-43
2021/07/28 03:32:18;;;;;;;13.47;8.87;;;18.10;88.60;;;;;;4907840;29;20492;-43
2021/07/28 03:34:45;;;;;;;10.87;8.60;;;18.10;88.50;;;;;;4921061;29;21025;-42
2021/07/28 03:37:12;;;;;;;12.60;9.50;;;18.10;88.40;;;;;;4924745;29;20902;-43
2021/07/28 03:39:40;;;;;;;11.27;8.93;;;18.10;88.40;;;;;;4926862;29;21021;-42
2021/07/28 03:42:07;;;;;;;12.70;9.23;;;18.00;88.40;;;;;;4913039;29;20456;-41
2021/07/28 03:44:34;;;;;;;11.93;8.50;;;18.00;88.30;;;;;;4924406;29;21029;-41
2021/07/28 03:47:01;;;;;;;11.47;8.03;;;18.00;88.40;;;;;;4927644;29;20484;-43
2021/07/28 03:49:28;;;;;;;15.90;9.30;;;17.90;88.40;;;;;;4920359;29;20538;-41
2021/07/28 03:51:55;;;;;;;11.40;9.50;;;17.90;88.40;;;;;;4922806;29;20579;-40
2021/07/28 03:54:22;;;;;;;11.00;8.53;;;17.90;88.50;;;;;;4924127;29;20920;-40
2021/07/28 03:56:49;;;;;;;14.23;8.73;;;17.90;88.30;;;;;;4920601;29;20828;-42
2021/07/28 03:59:16;;;;;;;10.37;8.20;;;17.90;88.40;;;;;;4916961;29;20460;-40
2021/07/28 04:01:43;;;;;;;11.37;8.57;;;17.90;88.50;;;;;;4920146;29;20547;-43
2021/07/28 04:04:10;;;;;;;12.40;9.00;;;17.90;88.50;;;;;;4923452;29;20551;-42
2021/07/28 04:06:36;;;;;;;13.23;10.60;;;17.90;88.50;;;;;;4922894;29;20471;-43
2021/07/28 04:09:03;;;;;;;12.47;9.30;;;17.90;88.40;;;;;;4922180;29;20490;-41
2021/07/28 04:11:30;;;;;;;15.13;10.27;;;17.90;88.50;;;;;;4921969;29;20524;-41
2021/07/28 04:13:57;;;;;;;10.90;9.23;;;17.90;88.60;;;;;;4911548;29;20569;-41
2021/07/28 04:16:25;;;;;;;12.93;9.33;;;17.90;88.80;;;;;;4921165;29;20472;-41
2021/07/28 04:18:52;;;;;;;11.80;8.57;;;17.90;88.90;;;;;;4919416;29;22000;-41
2021/07/28 04:21:19;;;;;;;23.57;10.40;;;17.90;89.10;;;;;;4921291;29;20472;-40
2021/07/28 04:23:45;;;;;;;11.87;9.83;;;18.00;89.00;;;;;;4922643;29;20500;-42
2021/07/28 04:26:12;;;;;;;9.77;8.77;;;18.00;89.00;;;;;;4922300;29;21032;-42
2021/07/28 04:28:39;;;;;;;11.80;9.47;;;18.00;89.00;;;;;;4919542;29;21160;-42
2021/07/28 04:31:06;;;;;;;11.50;9.60;;;18.00;89.00;;;;;;4921669;29;20464;-41
2021/07/28 04:33:34;;;;;;;12.23;10.13;;;18.00;89.00;;;;;;4923158;29;20463;-41
2021/07/28 04:36:00;;;;;;;14.20;9.10;;;18.00;89.00;;;;;;4913155;29;20550;-40
2021/07/28 04:38:27;;;;;;;10.97;8.90;;;18.00;89.00;;;;;;4910072;29;20813;-41
2021/07/28 04:40:54;;;;;;;12.30;9.40;;;18.10;89.00;;;;;;4927304;29;20455;-40
2021/07/28 04:43:21;;;;;;;9.93;8.50;;;18.10;89.10;;;;;;4927460;29;20576;-42
2021/07/28 04:45:59;;;;;;;13.73;10.73;;;18.10;89.10;;;;;;4928312;29;20502;-41
2021/07/28 04:48:27;;;;;;;12.03;9.53;;;18.20;89.10;;;;;;4927590;29;22605;-41
2021/07/28 04:50:55;;;;;;;13.27;9.47;;;18.20;89.10;;;;;;4927613;29;21317;-41
2021/07/28 04:53:28;;;;;;;16.80;10.13;;;18.20;89.20;;;;;;4925763;29;20492;-42
2021/07/28 04:55:56;;;;;;;13.03;8.83;;;18.30;89.30;;;;;;4922436;29;20467;-41
2021/07/28 04:58:24;;;;;;;13.03;10.13;;;18.30;89.20;;;;;;4925933;29;20464;-43
2021/07/28 05:00:52;;;;;;;13.23;10.03;;;18.30;89.10;;;;;;4925116;29;20539;-42
2021/07/28 05:03:19;;;;;;;12.67;11.07;;;18.30;89.10;;;;;;4915773;29;20479;-41
2021/07/28 05:05:46;;;;;;;11.43;9.50;;;18.40;89.00;;;;;;4929870;29;20456;-41
2021/07/28 05:08:15;;;;;;;11.90;9.50;;;18.40;88.90;;;;;;4931870;29;20459;-41
2021/07/28 05:10:42;;;;;;;13.10;10.13;;;18.30;88.90;;;;;;4930997;29;20456;-43
2021/07/28 05:13:09;;;;;;;13.73;10.20;;;18.30;88.90;;;;;;4914789;29;21072;-43
2021/07/28 05:15:36;;;;;;;11.50;9.27;;;18.40;88.90;;;;;;4926344;29;20456;-43
2021/07/28 05:18:03;;;;;;;15.23;9.70;;;18.40;88.90;;;;;;4922856;29;20471;-41
2021/07/28 05:20:30;;;;;;;16.57;10.70;;;18.40;89.00;;;;;;4925582;29;21228;-41
2021/07/28 05:22:57;;;;;;;16.50;10.07;;;18.40;89.10;;;;;;4924829;29;20555;-42
2021/07/28 05:25:24;;;;;;;12.73;10.23;;;18.40;89.00;;;;;;4926325;29;20515;-41
2021/07/28 05:27:50;;;;;;;16.20;10.33;;;18.40;88.80;;;;;;4916063;29;20474;-41
2021/07/28 05:30:17;;;;;;;14.70;9.77;;;18.40;88.80;;;;;;4911289;29;20469;-42
2021/07/28 05:32:44;;;;;;;17.70;11.67;;;18.50;88.80;;;;;;4924109;29;20496;-41
2021/07/28 05:35:11;;;;;;;14.57;11.30;;;18.50;88.60;;;;;;4926057;29;20538;-42
2021/07/28 05:37:38;;;;;;;13.27;10.67;;;18.60;88.60;;;;;;4927391;29;21005;-42
2021/07/28 05:40:05;;;;;;;11.77;9.93;;;18.60;88.40;;;;;;4926806;29;20539;-42
2021/07/28 05:42:32;;;;;;;16.67;12.27;;;18.70;88.30;;;;;;4925549;29;20559;-42
2021/07/28 05:45:01;;;;;;;16.07;10.50;;;18.70;88.30;;;;;;4924962;29;20475;-42
2021/07/28 05:47:28;;;;;;;15.13;11.60;;;18.70;88.30;;;;;;4925480;29;20920;-40
2021/07/28 05:49:58;;;;;;;13.20;11.47;;;18.80;88.30;;;;;;4925048;29;20497;-42
2021/07/28 05:52:25;;;;;;;14.20;11.00;;;18.80;88.40;;;;;;4913197;29;20500;-41
2021/07/28 05:54:52;;;;;;;16.40;10.60;;;18.80;88.40;;;;;;4925991;29;20480;-43
2021/07/28 05:57:18;;;;;;;15.83;11.20;;;18.90;88.60;;;;;;4913014;29;20487;-43
2021/07/28 05:59:45;;;;;;;15.93;11.07;;;18.90;88.60;;;;;;4923061;29;20464;-43
2021/07/28 06:02:12;;;;;;;18.10;12.00;;;19.00;88.60;;;;;;4924439;29;20472;-41
2021/07/28 06:04:39;;;;;;;15.13;11.27;;;19.00;88.40;;;;;;4929515;29;20459;-42
2021/07/28 06:07:07;;;;;;;14.93;12.20;;;19.00;88.50;;;;;;4927546;29;20542;-44
2021/07/28 06:09:34;;;;;;;13.80;10.87;;;19.00;88.50;;;;;;4913084;29;20461;-41
2021/07/28 06:12:01;;;;;;;13.33;11.13;;;19.00;88.50;;;;;;4924757;29;20485;-42
2021/07/28 06:14:28;;;;;;;15.90;10.80;;;19.10;88.40;;;;;;4907224;29;20492;-43
2021/07/28 06:16:54;;;;;;;16.20;11.90;;;19.10;88.40;;;;;;4923893;29;20535;-44
2021/07/28 06:19:21;;;;;;;14.60;10.80;;;19.10;88.30;;;;;;4921994;29;20983;-43
2021/07/28 06:21:48;;;;;;;17.60;11.60;;;19.10;88.40;;;;;;4912213;29;20562;-43
2021/07/28 06:24:15;;;;;;;14.63;10.87;;;19.20;88.20;;;;;;4927397;29;20467;-43
2021/07/28 06:26:41;;;;;;;13.20;10.87;;;19.20;88.10;;;;;;4927387;29;21013;-43
2021/07/28 06:29:09;;;;;;;15.27;10.23;;;19.20;88.00;;;;;;4927306;29;20471;-44
2021/07/28 06:31:36;;;;;;;12.50;10.20;;;19.20;87.90;;;;;;4908697;29;20460;-42
2021/07/28 06:34:03;;;;;;;19.40;11.13;;;19.20;87.90;;;;;;4913523;29;20546;-43
2021/07/28 06:36:30;;;;;;;12.93;9.73;;;19.20;87.80;;;;;;4924443;29;20455;-43
2021/07/28 06:38:56;;;;;;;13.20;9.10;;;19.20;87.80;;;;;;4925753;29;20989;-43
2021/07/28 06:41:23;;;;;;;11.80;9.97;;;19.30;87.20;;;;;;4914186;29;20469;-42
2021/07/28 06:43:50;;;;;;;12.60;10.03;;;19.30;87.20;;;;;;4913286;29;20464;-43
2021/07/28 06:46:17;;;;;;;10.30;8.93;;;19.30;87.40;;;;;;4923586;29;20502;-42
2021/07/28 06:48:44;;;;;;;10.03;8.90;;;19.40;87.10;;;;;;4912977;29;20463;-41
2021/07/28 06:51:11;;;;;;;14.90;8.90;;;19.50;85.90;;;;;;4923959;29;20465;-42
2021/07/28 06:53:38;;;;;;;11.90;9.20;;;19.50;85.30;;;;;;4925791;29;20577;-43
2021/07/28 06:56:08;;;;;;;14.20;10.10;;;19.60;85.00;;;;;;4925542;29;21053;-43
2021/07/28 06:58:35;;;;;;;11.53;9.00;;;19.60;85.00;;;;;;4925544;29;20457;-43
2021/07/28 07:01:02;;;;;;;14.93;9.97;;;19.50;85.40;;;;;;4909717;29;20945;-43
2021/07/28 07:03:29;;;;;;;10.00;8.73;;;19.50;85.70;;;;;;4915802;29;20463;-43
2021/07/28 07:06:15;;;;;;;12.90;9.47;;;19.60;85.90;;;;;;4925560;29;21011;-42
2021/07/28 07:08:44;;;;;;;10.83;8.10;;;19.60;85.90;;;;;;4927759;29;20575;-44
2021/07/28 07:11:11;;;;;;;10.33;8.93;;;19.70;85.30;;;;;;4910615;29;20959;-43
2021/07/28 07:13:38;;;;;;;12.20;8.73;;;19.60;85.10;;;;;;4918764;29;20608;-43
2021/07/28 07:16:05;;;;;;;12.20;9.73;;;19.70;84.90;;;;;;4924175;29;20503;-43
2021/07/28 07:18:32;;;;;;;13.57;10.43;;;19.70;84.30;;;;;;4923979;29;20452;-41
2021/07/28 07:20:59;;;;;;;12.53;8.73;;;19.70;84.60;;;;;;4920472;29;20478;-41
2021/07/28 07:23:25;;;;;;;12.77;9.73;;;19.70;85.20;;;;;;4920981;29;20492;-43
2021/07/28 07:25:58;;;;;;;11.40;10.20;;;19.80;85.30;;;;;;4920704;29;20479;-43
2021/07/28 07:28:27;;;;;;;16.10;11.17;;;19.80;85.40;;;;;;4923829;29;20468;-41
2021/07/28 07:30:54;;;;;;;15.23;9.37;;;19.90;85.50;;;;;;4923507;29;20481;-42
2021/07/28 07:36:11;;;;;;;11.50;9.10;;;20.00;85.20;;;;;;4925428;29;20471;-42
2021/07/28 07:38:38;;;;;;;11.57;9.40;;;20.20;84.20;;;;;;4912687;29;20954;-43
2021/07/28 07:41:05;;;;;;;16.03;9.80;;;20.30;83.50;;;;;;4924561;29;20523;-43
2021/07/28 07:43:32;;;;;;;13.53;8.87;;;20.40;83.20;;;;;;4924467;29;20465;-42
2021/07/28 07:45:59;;;;;;;12.37;9.57;;;20.50;83.20;;;;;;4926146;29;20877;-43
2021/07/28 07:48:26;;;;;;;14.80;8.87;;;20.70;83.00;;;;;;4926219;29;20462;-43
2021/07/28 07:50:54;;;;;;;11.57;8.30;;;20.80;82.20;;;;;;4921889;29;20459;-43
2021/07/28 07:53:21;;;;;;;12.87;9.50;;;20.90;82.40;;;;;;4922496;29;20488;-44
2021/07/28 07:55:48;;;;;;;12.37;9.03;;;21.00;81.80;;;;;;4910873;29;20457;-42
2021/07/28 07:58:14;;;;;;;10.07;8.70;;;21.10;80.50;;;;;;4921617;29;20503;-41
2021/07/28 08:00:41;;;;;;;12.53;8.80;;;21.10;81.00;;;;;;4923780;29;20463;-43
2021/07/28 08:03:08;;;;;;;10.70;8.20;;;21.20;80.80;;;;;;4925080;29;20957;-42
2021/07/28 08:05:35;;;;;;;9.53;8.53;;;21.20;81.30;;;;;;4925346;29;20989;-43
2021/07/28 08:08:02;;;;;;;9.47;7.53;;;21.40;81.20;;;;;;4922798;29;20469;-42
2021/07/28 08:10:29;;;;;;;10.43;8.17;;;21.40;80.30;;;;;;4920235;29;20802;-43
2021/07/28 08:12:56;;;;;;;10.60;8.33;;;21.50;78.70;;;;;;4884107;29;1100118;-42
2021/07/28 08:15:22;;;;;;;10.40;8.80;;;21.60;79.30;;;;;;4923140;29;20460;-41
2021/07/28 08:17:49;;;;;;;11.90;8.33;;;21.60;78.70;;;;;;4922316;29;20487;-42
2021/07/28 08:20:16;;;;;;;14.90;9.00;;;21.60;78.20;;;;;;4927607;29;20450;-44
2021/07/28 08:22:44;;;;;;;10.17;8.20;;;21.50;78.60;;;;;;4911159;29;20456;-44
2021/07/28 08:25:11;;;;;;;9.97;8.20;;;21.50;79.00;;;;;;4924858;29;20459;-42
2021/07/28 08:27:38;;;;;;;13.97;9.63;;;21.50;78.80;;;;;;4923583;29;20464;-41
2021/07/28 08:30:06;;;;;;;8.70;6.93;;;21.40;79.00;;;;;;4909881;29;21250;-43
2021/07/28 08:32:32;;;;;;;10.70;8.40;;;21.40;79.20;;;;;;4920604;29;20563;-42
2021/07/28 08:34:59;;;;;;;11.83;8.00;;;21.30;79.40;;;;;;4922598;29;20783;-43
2021/07/28 08:37:26;;;;;;;12.00;8.60;;;21.40;78.80;;;;;;4918739;29;20464;-42
2021/07/28 08:39:53;;;;;;;9.40;8.40;;;21.40;78.80;;;;;;4916088;29;20519;-43
2021/07/28 08:42:22;;;;;;;10.03;7.93;;;21.40;78.90;;;;;;4922813;29;20440;-43
2021/07/28 08:44:48;;;;;;;8.27;7.10;;;21.40;79.40;;;;;;4923825;29;20471;-43
2021/07/28 08:47:18;;;;;;;9.90;8.90;;;21.40;79.50;;;;;;4912743;29;20533;-43
2021/07/28 08:49:45;;;;;;;10.83;8.03;;;21.50;79.50;;;;;;4922074;29;21056;-43
2021/07/28 08:52:13;;;;;;;10.83;8.20;;;21.50;79.00;;;;;;4921674;29;20509;-42
2021/07/28 08:54:40;;;;;;;9.90;8.23;;;21.50;78.30;;;;;;4909539;29;20546;-43
2021/07/28 08:57:11;;;;;;;11.10;8.00;;;21.40;78.40;;;;;;4922882;29;20466;-42
2021/07/28 08:59:38;;;;;;;8.97;7.93;;;21.30;78.70;;;;;;4918330;29;20465;-40
2021/07/28 09:02:05;;;;;;;11.63;8.30;;;21.30;79.60;;;;;;4921859;29;20459;-42
2021/07/28 09:04:34;;;;;;;11.90;8.00;;;21.30;80.00;;;;;;4920189;29;20444;-43
2021/07/28 09:07:13;;;;;;;9.50;7.53;;;21.30;80.20;;;;;;4913131;29;20527;-41
2021/07/28 09:09:50;;;;;;;11.57;8.00;;;21.30;79.90;;;;;;4903364;29;20991;-41
2021/07/28 09:12:17;;;;;;;10.77;8.57;;;21.30;79.60;;;;;;4919026;29;20789;-44
2021/07/28 09:14:55;;;;;;;8.60;7.37;;;21.30;79.90;;;;;;4919115;29;20505;-43
2021/07/28 09:17:35;;;;;;;9.40;8.43;;;21.30;79.80;;;;;;4922253;29;20470;-43
2021/07/28 09:20:04;;;;;;;11.97;7.77;;;21.30;78.80;;;;;;4929441;29;20534;-43
2021/07/28 09:22:39;;;;;;;9.63;8.53;;;21.30;78.90;;;;;;4928863;29;20455;-43
2021/07/28 09:25:06;;;;;;;9.77;7.73;;;21.30;79.30;;;;;;4928039;29;20822;-43
2021/07/28 09:27:54;;;;;;;10.53;7.70;;;21.30;79.50;;;;;;4927541;29;21115;-42
2021/07/28 09:30:23;;;;;;;10.83;7.47;;;21.30;79.50;;;;;;4908447;29;20475;-44
2021/07/28 09:33:02;;;;;;;8.50;7.70;;;21.40;79.80;;;;;;4911528;29;21060;-42
2021/07/28 09:35:50;;;;;;;9.83;8.57;;;21.50;79.50;;;;;;4925772;29;20544;-42
2021/07/28 09:38:42;;;;;;;10.93;7.57;;;21.60;79.20;;;;;;4928928;29;20459;-41
2021/07/28 09:41:23;;;;;;;16.33;8.50;;;21.70;78.70;;;;;;4927225;29;20457;-43
2021/07/28 09:43:56;;;;;;;13.27;8.80;;;21.80;78.30;;;;;;4926875;29;20523;-42
2021/07/28 09:46:31;;;;;;;11.03;8.97;;;21.90;77.80;;;;;;4913824;29;20505;-42
2021/07/28 09:49:02;;;;;;;9.77;8.00;;;21.90;77.70;;;;;;4926899;29;20467;-43
2021/07/28 09:51:35;;;;;;;11.30;7.93;;;22.20;77.30;;;;;;4928217;29;20516;-44
2021/07/28 09:54:07;;;;;;;8.40;7.60;;;22.40;77.40;;;;;;4924725;29;21316;-42
2021/07/28 09:56:56;;;;;;;14.43;7.67;;;22.70;76.20;;;;;;4926398;29;20788;-43
2021/07/28 09:59:23;;;;;;;7.27;6.57;;;23.00;74.80;;;;;;4925574;29;20481;-43
2021/07/28 10:01:51;;;;;;;10.03;7.03;;;23.40;72.20;;;;;;4928598;29;20478;-42
2021/07/28 10:04:20;;;;;;;7.30;6.27;;;23.40;71.70;;;;;;4929296;29;20522;-42
2021/07/28 10:06:52;;;;;;;8.73;6.53;;;23.40;70.30;;;;;;4927572;29;20567;-42
2021/07/28 10:09:31;;;;;;;9.83;7.33;;;23.20;71.30;;;;;;4908422;29;20456;-42
2021/07/28 10:11:59;;;;;;;7.93;7.10;;;23.00;72.50;;;;;;4927188;29;20470;-41
2021/07/28 10:14:27;;;;;;;9.00;5.50;;;22.80;73.00;;;;;;4926167;29;20916;-42
2021/07/28 10:16:54;;;;;;;6.70;5.67;;;22.70;72.70;;;;;;4930546;29;20465;-43
2021/07/28 10:19:22;;;;;;;8.87;6.57;;;22.60;73.30;;;;;;4928536;29;20458;-43
2021/07/28 10:21:54;;;;;;;7.50;5.47;;;22.50;74.00;;;;;;4929013;29;20945;-42
2021/07/28 10:24:24;;;;;;;7.47;5.90;;;22.50;73.70;;;;;;4927833;29;21105;-42
2021/07/28 10:26:53;;;;;;;7.57;6.87;;;22.50;73.80;;;;;;4923686;29;20973;-43
2021/07/28 10:29:25;;;;;;;7.50;6.20;;;22.50;74.00;;;;;;4924513;29;20454;-43
2021/07/28 10:31:54;;;;;;;6.60;5.80;;;22.50;73.50;;;;;;4897943;29;20840;-41
2021/07/28 10:34:29;;;;;;;6.43;5.83;;;22.50;73.90;;;;;;4925700;29;20502;-43
2021/07/28 10:37:07;;;;;;;7.10;4.50;;;22.50;74.30;;;;;;4926894;29;20889;-43
2021/07/28 10:39:47;;;;;;;5.23;4.73;;;22.40;73.00;;;;;;4915006;29;20464;-43
2021/07/28 10:42:28;;;;;;;10.07;5.57;;;22.30;73.20;;;;;;4927359;29;21028;-43
2021/07/28 10:45:01;;;;;;;6.83;5.50;;;22.30;74.10;;;;;;4929942;29;20467;-42
2021/07/28 10:47:41;;;;;;;5.27;4.53;;;22.40;74.00;;;;;;4913030;29;20476;-42
2021/07/28 10:50:38;;;;;;;7.33;5.40;;;22.40;72.70;;;;;;4913544;29;20462;-43
2021/07/28 10:53:05;;;;;;;5.50;5.00;;;22.40;72.90;;;;;;4903863;29;20488;-42
2021/07/28 10:55:38;;;;;;;5.87;4.60;;;22.40;72.40;;;;;;4926895;29;21012;-42
2021/07/28 10:58:11;;;;;;;6.13;5.47;;;22.40;73.50;;;;;;4908540;29;20493;-42
2021/07/28 11:00:38;;;;;;;9.50;5.90;;;22.40;72.70;;;;;;4924119;29;20555;-42
2021/07/28 11:03:09;;;;;;;9.43;5.30;;;22.40;73.20;;;;;;4912479;29;20455;-42
2021/07/28 11:05:51;;;;;;;7.03;5.83;;;22.40;72.30;;;;;;4914077;29;21229;-43
2021/07/28 11:08:22;;;;;;;6.93;5.30;;;22.30;73.30;;;;;;4924791;29;20477;-43
2021/07/28 11:10:53;;;;;;;5.10;4.60;;;22.30;73.80;;;;;;4926572;29;20523;-42
2021/07/28 11:13:22;;;;;;;5.10;4.60;;;22.30;73.60;;;;;;4923813;29;20503;-42
2021/07/28 11:16:03;;;;;;;5.83;4.70;;;22.40;72.50;;;;;;4924989;29;20456;-43
2021/07/28 11:18:34;;;;;;;5.43;4.70;;;22.50;72.20;;;;;;4924443;29;20491;-42
2021/07/28 11:21:29;;;;;;;5.40;4.77;;;22.60;72.70;;;;;;4926025;29;20474;-43
2021/07/28 11:24:01;;;;;;;4.90;4.50;;;22.70;71.50;;;;;;4923454;29;20511;-43
2021/07/28 11:26:36;;;;;;;5.07;3.60;;;22.70;69.00;;;;;;4925754;29;20476;-42
2021/07/28 11:29:09;;;;;;;4.07;3.67;;;22.70;69.70;;;;;;4926904;29;20553;-43
2021/07/28 11:31:40;;;;;;;5.10;4.60;;;22.60;71.00;;;;;;4925339;29;20526;-43
2021/07/28 11:34:13;;;;;;;5.23;4.37;;;22.50;73.00;;;;;;4925803;29;20546;-42
2021/07/28 11:36:43;;;;;;;7.60;5.07;;;22.30;75.30;;;;;;4924780;29;20461;-43
2021/07/28 11:39:15;;;;;;;7.27;5.87;;;22.20;76.30;;;;;;4925108;29;20499;-43
2021/07/28 11:41:43;;;;;;;6.77;6.17;;;22.00;76.00;;;;;;4928972;29;20807;-43
2021/07/28 11:44:10;;;;;;;7.90;7.13;;;21.90;77.10;;;;;;4913298;29;20546;-42
2021/07/28 11:46:38;;;;;;;8.67;7.20;;;21.90;77.30;;;;;;4907982;29;20472;-42
2021/07/28 11:49:07;;;;;;;13.23;8.30;;;21.90;78.20;;;;;;4925289;29;20511;-43
2021/07/28 11:51:42;;;;;;;8.40;7.60;;;21.80;78.60;;;;;;4923831;29;20468;-41
2021/07/28 11:54:14;;;;;;;7.80;7.00;;;21.80;79.30;;;;;;4909972;29;20491;-41
2021/07/28 11:56:49;;;;;;;9.70;6.90;;;21.90;79.70;;;;;;4925262;29;20833;-43
2021/07/28 11:59:24;;;;;;;9.60;6.27;;;22.00;80.00;;;;;;4929866;29;20462;-42
2021/07/28 12:01:55;;;;;;;6.70;5.73;;;22.20;80.70;;;;;;4920826;29;20468;-44
2021/07/28 12:04:25;;;;;;;5.50;4.50;;;22.30;81.50;;;;;;4913948;29;20904;-43
2021/07/28 12:07:09;;;;;;;4.50;3.87;;;22.50;77.80;;;;;;4926036;29;20575;-44
2021/07/28 12:09:36;;;;;;;2.83;2.60;;;22.60;76.40;;;;;;4927285;29;20801;-41
2021/07/28 12:12:06;;;;;;;2.80;2.50;;;22.60;75.90;;;;;;4924714;29;20482;-42
2021/07/28 12:14:40;;;;;;;2.70;2.50;;;22.60;74.50;;;;;;4924328;29;20587;-41
2021/07/28 12:17:20;;;;;;;6.70;2.90;;;22.70;74.50;;;;;;4924332;29;21045;-42
2021/07/28 12:20:16;;;;;;;3.20;2.90;;;22.80;74.40;;;;;;4924467;29;20479;-42
2021/07/28 12:22:44;;;;;;;3.13;2.87;;;22.90;73.50;;;;;;4924705;29;20470;-41
2021/07/28 12:25:24;;;;;;;3.40;3.10;;;23.00;73.80;;;;;;4911403;29;20526;-42
2021/07/28 12:27:55;;;;;;;4.47;4.07;;;23.10;73.70;;;;;;4928270;29;20462;-42
2021/07/28 12:30:27;;;;;;;4.50;4.10;;;23.20;70.90;;;;;;4924940;29;20743;-43
2021/07/28 12:33:03;;;;;;;4.80;4.40;;;23.30;69.40;;;;;;4926630;29;20478;-42
2021/07/28 12:35:40;;;;;;;4.27;3.87;;;23.30;68.90;;;;;;4925463;29;20462;-42
2021/07/28 12:38:08;;;;;;;4.50;4.10;;;23.30;69.10;;;;;;4926806;29;20458;-44
2021/07/28 12:40:37;;;;;;;4.30;4.00;;;23.40;70.50;;;;;;4926909;29;20500;-43
2021/07/28 12:43:05;;;;;;;5.03;3.80;;;23.40;70.40;;;;;;4922865;29;20470;-43
2021/07/28 12:45:33;;;;;;;4.60;3.80;;;23.40;69.80;;;;;;4925147;29;20567;-41
2021/07/28 12:48:00;;;;;;;3.37;3.10;;;23.50;69.90;;;;;;4909497;29;20935;-43
2021/07/28 12:50:27;;;;;;;3.40;2.80;;;23.60;67.60;;;;;;4926240;29;20455;-43
2021/07/28 12:52:57;;;;;;;3.90;3.40;;;23.60;68.80;;;;;;4927201;29;20851;-42